Time;durP1;ratioP1;P1;durP2;ratioP2;P2;SDS_P1;SDS_P2;PMS_P1;PMS_P2;Temp;Humidity;BMP_temperature;BMP_pressure;BME280_temperature;BME280_humidity;BME280_pressure;Samples;Min_cycle;Max_cycle;Signal;HPM_P1;HPM_P2
2022/10/26 00:00:27;;;;;;;10.68;6.88;;;11.10;99.90;;;;;;5115878;28;20066;-82
2022/10/26 00:02:54;;;;;;;13.43;6.32;;;11.00;99.90;;;;;;5133767;28;20036;-82
2022/10/26 00:05:20;;;;;;;9.07;6.68;;;11.00;99.90;;;;;;5116362;28;20050;-82
2022/10/26 00:07:47;;;;;;;9.68;5.95;;;10.90;99.90;;;;;;5101994;27;20043;-82
2022/10/26 00:10:12;;;;;;;11.35;6.75;;;11.00;99.90;;;;;;5136989;27;20039;-82
2022/10/26 00:12:38;;;;;;;12.00;6.63;;;11.00;99.90;;;;;;5099050;28;20502;-82
2022/10/26 00:15:05;;;;;;;9.13;6.28;;;10.90;99.90;;;;;;5131953;27;20078;-83
2022/10/26 00:17:31;;;;;;;10.93;6.40;;;10.90;99.90;;;;;;5120089;27;20547;-82
2022/10/26 00:19:56;;;;;;;12.45;6.85;;;11.00;99.90;;;;;;5137004;27;20038;-82
2022/10/26 00:22:22;;;;;;;13.75;7.75;;;10.90;99.90;;;;;;5137049;27;20038;-83
2022/10/26 00:24:48;;;;;;;12.00;7.13;;;10.90;99.90;;;;;;5137192;27;20034;-82
2022/10/26 00:27:14;;;;;;;10.77;7.35;;;10.90;99.90;;;;;;5151242;27;20917;-82
2022/10/26 00:29:40;;;;;;;9.27;6.75;;;10.80;99.90;;;;;;5105634;27;20936;-82
2022/10/26 00:32:05;;;;;;;11.85;7.53;;;10.80;99.90;;;;;;5119813;27;20087;-83
2022/10/26 00:34:31;;;;;;;12.75;7.68;;;10.80;99.90;;;;;;5140267;27;20087;-82
2022/10/26 00:36:57;;;;;;;11.82;7.28;;;10.80;99.90;;;;;;5123668;27;20080;-82
2022/10/26 00:39:23;;;;;;;11.82;7.20;;;10.70;99.90;;;;;;5123617;27;20038;-82
2022/10/26 00:41:49;;;;;;;11.13;7.45;;;10.70;99.90;;;;;;5140310;27;20030;-82
2022/10/26 00:44:42;;;;;;;12.02;8.02;;;10.70;99.90;;;;;;5140477;27;20130;-83
2022/10/26 00:47:39;;;;;;;13.95;7.18;;;10.70;99.90;;;;;;5140686;27;20234;-82
2022/10/26 00:50:16;;;;;;;11.10;7.10;;;10.60;99.90;;;;;;5135689;27;20054;-82
2022/10/26 00:52:42;;;;;;;14.45;6.97;;;10.60;99.90;;;;;;5157713;27;20039;-83
2022/10/26 00:55:08;;;;;;;10.13;7.70;;;10.60;99.90;;;;;;5122584;27;20038;-83
2022/10/26 00:57:36;;;;;;;13.30;7.60;;;10.50;99.90;;;;;;5119433;27;20122;-82
2022/10/26 01:00:04;;;;;;;13.68;8.20;;;10.60;99.90;;;;;;5147642;27;20090;-82
2022/10/26 01:02:30;;;;;;;14.45;7.63;;;10.50;99.90;;;;;;5122846;27;20394;-82
2022/10/26 01:04:56;;;;;;;9.95;7.45;;;10.50;99.90;;;;;;5105670;27;20038;-83
2022/10/26 01:07:24;;;;;;;10.77;7.22;;;10.50;99.90;;;;;;5140246;27;20046;-83
2022/10/26 01:09:50;;;;;;;9.82;7.35;;;10.60;99.90;;;;;;5139644;27;20038;-82
2022/10/26 01:12:16;;;;;;;12.63;8.15;;;10.50;99.90;;;;;;5102363;27;20035;-83
2022/10/26 01:14:42;;;;;;;10.93;7.68;;;10.40;99.90;;;;;;5108876;27;20054;-83
2022/10/26 01:17:28;;;;;;;12.13;8.07;;;10.40;99.90;;;;;;5140122;27;20035;-82
2022/10/26 01:20:11;;;;;;;12.00;7.90;;;10.40;99.90;;;;;;5139822;27;20087;-82
2022/10/26 01:22:50;;;;;;;11.95;7.50;;;10.30;99.90;;;;;;5136614;27;20049;-82
2022/10/26 01:25:40;;;;;;;11.93;7.93;;;10.40;99.90;;;;;;5126941;27;20039;-82
2022/10/26 01:28:19;;;;;;;11.35;7.97;;;10.30;99.90;;;;;;5119109;27;20039;-82
2022/10/26 01:30:47;;;;;;;13.55;8.15;;;10.30;99.90;;;;;;5118649;27;20058;-83
2022/10/26 01:33:35;;;;;;;13.52;8.30;;;10.30;99.90;;;;;;5101723;27;20039;-82
2022/10/26 01:36:15;;;;;;;12.25;7.95;;;10.30;99.90;;;;;;5135516;27;20172;-82
2022/10/26 01:39:07;;;;;;;13.60;8.35;;;10.30;99.90;;;;;;5119147;27;20036;-82
2022/10/26 01:41:49;;;;;;;11.40;8.55;;;10.30;99.90;;;;;;5144361;27;20046;-83
2022/10/26 01:44:22;;;;;;;11.32;7.97;;;10.30;99.90;;;;;;5139370;27;20034;-82
2022/10/26 01:46:51;;;;;;;12.82;9.18;;;10.20;99.90;;;;;;5156383;27;20046;-83
2022/10/26 01:49:21;;;;;;;12.75;8.55;;;10.30;99.90;;;;;;5139779;27;20061;-82
2022/10/26 01:51:48;;;;;;;16.05;9.40;;;10.20;99.90;;;;;;5139297;27;20035;-82
2022/10/26 01:54:14;;;;;;;11.70;8.63;;;11.10;99.90;;;;;;5118611;27;20035;-82
2022/10/26 01:56:43;;;;;;;13.23;8.57;;;10.20;99.90;;;;;;5118451;27;20115;-82
2022/10/26 01:59:30;;;;;;;11.63;8.45;;;10.40;99.90;;;;;;5118628;27;20035;-83
2022/10/26 02:02:17;;;;;;;12.85;8.93;;;10.20;99.90;;;;;;5118142;27;20371;-82
2022/10/26 02:04:56;;;;;;;12.43;8.68;;;10.20;99.90;;;;;;5118706;27;20068;-82
2022/10/26 02:07:48;;;;;;;15.45;9.13;;;10.10;99.90;;;;;;5118407;27;20074;-82
2022/10/26 02:10:47;;;;;;;16.25;9.98;;;10.20;99.90;;;;;;5134785;27;20047;-82
2022/10/26 02:13:32;;;;;;;15.13;9.65;;;10.20;99.90;;;;;;5135113;27;20058;-82
2022/10/26 02:16:11;;;;;;;16.58;9.88;;;10.10;99.90;;;;;;5118211;27;20086;-82
2022/10/26 02:18:59;;;;;;;11.00;9.10;;;10.10;99.90;;;;;;5135259;27;20482;-81
2022/10/26 02:21:35;;;;;;;14.38;10.02;;;10.10;99.90;;;;;;5135069;27;20130;-82
2022/10/26 02:24:02;;;;;;;17.10;10.55;;;10.20;99.90;;;;;;5134529;27;20042;-83
2022/10/26 02:26:29;;;;;;;17.25;9.48;;;10.20;99.90;;;;;;5118058;27;20031;-83
2022/10/26 02:29:01;;;;;;;14.18;9.90;;;10.20;99.90;;;;;;5135205;27;20031;-83
2022/10/26 02:31:27;;;;;;;14.43;9.57;;;10.20;99.90;;;;;;5138322;27;20413;-82
2022/10/26 02:33:56;;;;;;;17.95;9.52;;;10.20;99.90;;;;;;5121331;27;20045;-82
2022/10/26 02:36:30;;;;;;;14.80;10.60;;;10.20;99.90;;;;;;5155697;27;20038;-82
2022/10/26 02:38:57;;;;;;;17.52;9.82;;;10.30;99.90;;;;;;5135218;27;20559;-82
2022/10/26 02:41:26;;;;;;;13.95;9.48;;;10.20;99.90;;;;;;5118001;27;20038;-82
2022/10/26 02:44:21;;;;;;;12.68;9.45;;;10.20;99.90;;;;;;5121595;27;20038;-82
2022/10/26 02:46:48;;;;;;;13.07;9.30;;;10.20;99.90;;;;;;5104847;27;20091;-82
2022/10/26 02:49:14;;;;;;;15.93;9.75;;;10.20;99.90;;;;;;5100376;27;20478;-83
2022/10/26 02:51:44;;;;;;;17.45;10.32;;;10.20;99.90;;;;;;5118009;27;20071;-82
2022/10/26 02:54:31;;;;;;;18.48;10.30;;;10.20;99.90;;;;;;5134581;27;20118;-82
2022/10/26 02:57:03;;;;;;;14.07;9.98;;;10.30;99.90;;;;;;5117369;27;20038;-82
2022/10/26 02:59:33;;;;;;;16.55;10.35;;;10.30;99.90;;;;;;5137095;27;20026;-82
2022/10/26 03:01:59;;;;;;;15.75;10.20;;;10.30;99.90;;;;;;5175696;27;20015;-82
2022/10/26 03:04:30;;;;;;;15.52;10.45;;;10.60;99.90;;;;;;5122507;27;20049;-83
2022/10/26 03:06:56;;;;;;;14.70;10.25;;;10.30;99.90;;;;;;5137942;27;20035;-82
2022/10/26 03:09:22;;;;;;;13.77;10.30;;;10.30;99.90;;;;;;5120797;27;20041;-82
2022/10/26 03:11:47;;;;;;;13.10;9.60;;;10.30;99.90;;;;;;5155224;27;20071;-82
2022/10/26 03:14:13;;;;;;;16.02;10.27;;;10.30;99.90;;;;;;5121033;27;20058;-82
2022/10/26 03:16:39;;;;;;;14.52;10.30;;;10.30;99.90;;;;;;5120555;27;20451;-82
2022/10/26 03:19:04;;;;;;;16.25;10.93;;;10.30;99.90;;;;;;5120445;27;20131;-82
2022/10/26 03:21:30;;;;;;;21.15;10.70;;;11.00;99.90;;;;;;5120088;27;20037;-82
2022/10/26 03:23:56;;;;;;;19.70;10.80;;;10.30;99.90;;;;;;5120457;27;20067;-82
2022/10/26 03:26:21;;;;;;;15.45;10.80;;;10.30;99.90;;;;;;5120231;27;20038;-82
2022/10/26 03:28:48;;;;;;;17.38;10.80;;;10.30;99.90;;;;;;5102963;27;20043;-82
2022/10/26 03:31:13;;;;;;;14.80;10.50;;;10.40;99.90;;;;;;5120124;27;20049;-82
2022/10/26 03:33:39;;;;;;;18.38;10.48;;;10.30;99.90;;;;;;5137235;27;20109;-82
2022/10/26 03:36:05;;;;;;;21.52;11.02;;;10.30;99.90;;;;;;5118824;27;20451;-82
2022/10/26 03:38:31;;;;;;;15.93;10.20;;;10.30;99.90;;;;;;5103502;27;20044;-82
2022/10/26 03:40:56;;;;;;;15.90;10.80;;;10.30;99.90;;;;;;5120070;27;20103;-82
2022/10/26 03:43:22;;;;;;;18.63;11.20;;;10.30;99.90;;;;;;5137692;27;20125;-82
2022/10/26 03:45:48;;;;;;;20.02;11.93;;;10.30;99.90;;;;;;5120398;27;20423;-83
2022/10/26 03:48:13;;;;;;;17.63;10.77;;;10.30;99.90;;;;;;5136838;27;20054;-82
2022/10/26 03:50:39;;;;;;;16.15;11.48;;;10.30;99.90;;;;;;5120007;27;20039;-82
2022/10/26 03:53:05;;;;;;;18.88;10.95;;;10.30;99.90;;;;;;5136759;27;20049;-82
2022/10/26 03:55:30;;;;;;;18.67;12.50;;;10.30;99.90;;;;;;5136790;27;20091;-82
2022/10/26 03:57:56;;;;;;;19.60;10.68;;;10.30;99.90;;;;;;5103006;27;20053;-82
2022/10/26 04:00:22;;;;;;;14.98;10.98;;;10.30;99.90;;;;;;5136421;27;20478;-83
2022/10/26 04:02:54;;;;;;;18.83;12.30;;;10.30;99.90;;;;;;5136449;27;20491;-82
2022/10/26 04:05:20;;;;;;;15.85;11.52;;;10.30;99.90;;;;;;5145823;27;20638;-82
2022/10/26 04:07:57;;;;;;;18.63;11.43;;;10.30;99.90;;;;;;5122281;27;20038;-83
2022/10/26 04:10:24;;;;;;;24.17;12.27;;;10.30;99.90;;;;;;5140943;27;20038;-82
2022/10/26 04:12:50;;;;;;;18.73;12.27;;;10.40;99.90;;;;;;5158080;27;20095;-82
2022/10/26 04:15:17;;;;;;;20.88;11.52;;;10.40;99.90;;;;;;5123726;27;20078;-83
2022/10/26 04:17:43;;;;;;;19.55;11.80;;;10.80;99.90;;;;;;5140605;27;20467;-83
2022/10/26 04:20:09;;;;;;;18.00;11.23;;;10.40;99.90;;;;;;5140995;27;20045;-83
2022/10/26 04:22:35;;;;;;;18.77;11.90;;;10.40;99.90;;;;;;5120477;27;20031;-82
2022/10/26 04:25:05;;;;;;;18.70;11.52;;;10.40;99.90;;;;;;5103159;27;20544;-82
2022/10/26 04:27:31;;;;;;;15.43;11.70;;;10.50;99.90;;;;;;5137390;27;20449;-82
2022/10/26 04:29:56;;;;;;;17.75;11.38;;;10.40;99.90;;;;;;5129459;27;20163;-82
2022/10/26 04:32:22;;;;;;;18.58;11.85;;;10.40;99.90;;;;;;5118787;27;20087;-82
2022/10/26 04:34:48;;;;;;;16.20;11.02;;;10.50;99.90;;;;;;5102727;27;20039;-82
2022/10/26 04:37:13;;;;;;;16.45;11.05;;;10.50;99.90;;;;;;5102883;27;20114;-82
2022/10/26 04:39:39;;;;;;;15.52;10.88;;;10.50;99.90;;;;;;5103266;27;20035;-82
2022/10/26 04:42:05;;;;;;;18.48;11.68;;;10.50;99.90;;;;;;5119984;27;20543;-82
2022/10/26 04:44:31;;;;;;;17.52;11.07;;;10.50;99.90;;;;;;5125067;27;20062;-83
2022/10/26 04:46:56;;;;;;;17.58;10.82;;;10.50;99.90;;;;;;5114033;27;20035;-82
2022/10/26 04:49:22;;;;;;;15.98;11.50;;;10.50;99.90;;;;;;5111115;27;20035;-82
2022/10/26 04:51:48;;;;;;;18.17;11.30;;;10.50;99.90;;;;;;5103433;27;20049;-82
2022/10/26 04:54:13;;;;;;;18.50;11.68;;;10.50;99.90;;;;;;5102995;27;20046;-82
2022/10/26 04:56:39;;;;;;;15.75;11.02;;;10.70;99.90;;;;;;5120045;27;20043;-82
2022/10/26 04:59:05;;;;;;;15.00;10.88;;;10.50;99.90;;;;;;5119360;27;20042;-82
2022/10/26 05:01:31;;;;;;;17.30;11.38;;;10.60;99.90;;;;;;5130346;27;20038;-82
2022/10/26 05:03:56;;;;;;;20.30;11.57;;;10.60;99.90;;;;;;5121145;27;20435;-83
2022/10/26 05:06:22;;;;;;;18.20;11.70;;;10.60;99.90;;;;;;5119066;27;20126;-82
2022/10/26 05:08:48;;;;;;;16.45;10.60;;;10.60;99.90;;;;;;5133057;27;20039;-82
2022/10/26 05:11:14;;;;;;;16.30;11.02;;;10.60;99.90;;;;;;5122457;27;20042;-82
2022/10/26 05:13:39;;;;;;;17.10;11.32;;;10.60;99.90;;;;;;5134385;27;20054;-82
2022/10/26 05:16:05;;;;;;;14.13;9.85;;;10.60;99.90;;;;;;5122624;27;20479;-82
2022/10/26 05:18:31;;;;;;;16.13;11.27;;;10.60;99.90;;;;;;5121660;27;20099;-82
2022/10/26 05:20:57;;;;;;;16.70;9.98;;;10.60;99.90;;;;;;5122317;27;20030;-83
2022/10/26 05:23:23;;;;;;;17.15;11.00;;;10.70;99.90;;;;;;5105551;27;20117;-82
2022/10/26 05:25:49;;;;;;;17.20;10.75;;;10.70;99.90;;;;;;5112987;27;20035;-83
2022/10/26 05:28:15;;;;;;;15.60;10.85;;;10.70;99.90;;;;;;5102284;27;20072;-83
2022/10/26 05:30:42;;;;;;;16.80;10.38;;;11.20;99.90;;;;;;5130495;27;20518;-82
2022/10/26 05:33:12;;;;;;;17.77;10.63;;;10.70;99.90;;;;;;5156761;27;20398;-82
2022/10/26 05:35:39;;;;;;;16.05;10.73;;;10.70;99.90;;;;;;5121822;27;20039;-82
2022/10/26 05:38:16;;;;;;;17.13;11.20;;;10.80;99.90;;;;;;5139413;27;20114;-83
2022/10/26 05:40:52;;;;;;;16.23;10.95;;;10.80;99.90;;;;;;5147114;27;20031;-83
2022/10/26 05:43:19;;;;;;;16.58;11.05;;;10.80;99.90;;;;;;5122674;27;20038;-83
2022/10/26 05:45:44;;;;;;;12.70;9.63;;;11.00;99.90;;;;;;5155934;27;20049;-83
2022/10/26 05:48:11;;;;;;;20.98;11.07;;;10.90;99.90;;;;;;5122379;27;20039;-82
2022/10/26 05:50:36;;;;;;;17.48;9.68;;;10.90;99.90;;;;;;5157064;27;20082;-83
2022/10/26 05:53:02;;;;;;;15.18;10.00;;;10.90;99.90;;;;;;5132547;27;20376;-83
2022/10/26 05:55:28;;;;;;;12.80;9.30;;;11.10;99.90;;;;;;5129539;27;20066;-83
2022/10/26 05:57:54;;;;;;;18.20;10.13;;;10.90;99.90;;;;;;5139038;27;20039;-83
2022/10/26 06:00:22;;;;;;;15.93;9.32;;;11.00;99.90;;;;;;5122469;27;20035;-83
2022/10/26 06:03:21;;;;;;;13.80;9.75;;;11.00;99.90;;;;;;5156208;27;20438;-83
2022/10/26 06:05:55;;;;;;;12.77;10.10;;;11.00;99.90;;;;;;5138860;27;20486;-82
2022/10/26 06:08:23;;;;;;;13.30;9.10;;;11.00;99.90;;;;;;5156458;27;20042;-82
2022/10/26 06:10:49;;;;;;;13.65;10.10;;;11.10;99.90;;;;;;5150969;27;20039;-82
2022/10/26 06:13:16;;;;;;;14.52;10.68;;;11.10;99.90;;;;;;5110530;27;20094;-82
2022/10/26 06:16:15;;;;;;;13.85;9.15;;;11.10;99.90;;;;;;5138315;27;20041;-83
2022/10/26 06:18:47;;;;;;;15.15;9.63;;;11.10;99.90;;;;;;5134327;27;20043;-81
2022/10/26 06:21:23;;;;;;;13.52;9.60;;;11.10;99.90;;;;;;5155271;27;20074;-81
2022/10/26 06:24:06;;;;;;;12.20;9.85;;;11.10;99.90;;;;;;5135812;27;20084;-82
2022/10/26 06:26:50;;;;;;;15.30;9.55;;;11.10;99.90;;;;;;5138498;27;20074;-83
2022/10/26 06:29:41;;;;;;;14.23;9.30;;;11.10;99.90;;;;;;5138740;27;20039;-82
2022/10/26 06:32:09;;;;;;;15.93;9.45;;;11.10;99.90;;;;;;5130491;27;20039;-82
2022/10/26 06:34:41;;;;;;;15.45;9.20;;;11.20;99.90;;;;;;5138327;27;20046;-82
2022/10/26 06:37:08;;;;;;;23.40;9.90;;;11.10;99.90;;;;;;5156608;27;20045;-83
2022/10/26 06:39:38;;;;;;;13.18;9.13;;;11.10;99.90;;;;;;5122373;27;20034;-83
2022/10/26 06:42:04;;;;;;;16.35;9.05;;;11.10;99.90;;;;;;5138681;27;20042;-83
2022/10/26 06:44:30;;;;;;;14.40;8.95;;;11.10;99.90;;;;;;5118039;27;20039;-82
2022/10/26 06:47:13;;;;;;;17.70;9.63;;;11.20;99.90;;;;;;5118541;27;20196;-82
2022/10/26 06:50:50;;;;;;;19.30;9.25;;;11.20;99.90;;;;;;5135406;27;20031;-84
2022/10/26 06:53:34;;;;;;;16.50;9.13;;;11.20;99.90;;;;;;5112560;27;20701;-83
2022/10/26 06:56:01;;;;;;;11.93;8.60;;;11.20;99.90;;;;;;5057655;28;20159;-83
2022/10/26 06:58:34;;;;;;;14.20;8.43;;;11.30;99.90;;;;;;5041284;28;20051;-83
2022/10/26 07:01:00;;;;;;;10.70;8.65;;;11.30;99.90;;;;;;5073845;28;20036;-83
2022/10/26 07:03:26;;;;;;;12.57;8.45;;;11.30;99.90;;;;;;5074161;28;20102;-83
2022/10/26 07:05:51;;;;;;;13.93;9.38;;;11.30;99.90;;;;;;5040885;28;20439;-84
2022/10/26 07:08:18;;;;;;;13.63;9.02;;;11.30;99.90;;;;;;5057327;28;20051;-84
2022/10/26 07:10:44;;;;;;;16.38;8.80;;;11.40;99.90;;;;;;5057728;28;20040;-83
2022/10/26 07:13:10;;;;;;;13.55;8.80;;;11.40;99.90;;;;;;5041537;28;20055;-84
2022/10/26 07:15:37;;;;;;;18.40;8.95;;;11.40;99.90;;;;;;5041361;28;20539;-83
2022/10/26 07:18:05;;;;;;;12.50;8.23;;;11.40;99.90;;;;;;5041296;28;20060;-84
2022/10/26 07:20:34;;;;;;;13.48;8.57;;;11.50;99.90;;;;;;5057739;28;20033;-84
2022/10/26 07:23:00;;;;;;;14.32;8.93;;;11.50;99.90;;;;;;5057347;28;20040;-83
2022/10/26 07:25:27;;;;;;;17.65;9.05;;;11.50;99.90;;;;;;5086532;28;20058;-83
2022/10/26 07:27:59;;;;;;;13.93;8.73;;;11.70;99.90;;;;;;5087227;28;20032;-86
2022/10/26 07:30:26;;;;;;;15.07;8.45;;;11.70;99.90;;;;;;5114387;28;20069;-84
2022/10/26 07:33:03;;;;;;;13.70;8.68;;;11.80;99.90;;;;;;5062090;28;20046;-83
2022/10/26 07:35:29;;;;;;;11.40;8.35;;;11.90;99.90;;;;;;5078097;28;20031;-84
2022/10/26 07:37:58;;;;;;;14.18;7.55;;;11.90;99.90;;;;;;5038181;28;20048;-84
2022/10/26 07:40:24;;;;;;;12.15;7.32;;;12.10;99.90;;;;;;5053903;28;20495;-83
2022/10/26 07:42:50;;;;;;;14.68;7.70;;;12.20;99.90;;;;;;5053655;28;20041;-84
2022/10/26 07:45:16;;;;;;;11.07;8.20;;;12.30;99.90;;;;;;5021005;28;20051;-84
2022/10/26 07:47:42;;;;;;;11.75;7.30;;;12.30;99.90;;;;;;5036345;28;20041;-84
2022/10/26 07:50:08;;;;;;;13.95;7.53;;;12.40;99.90;;;;;;5053642;28;20080;-83
2022/10/26 07:52:35;;;;;;;12.57;7.20;;;12.40;99.90;;;;;;5036060;28;20447;-83
2022/10/26 07:55:01;;;;;;;11.60;7.03;;;12.50;99.90;;;;;;5020415;28;20047;-84
2022/10/26 07:57:27;;;;;;;12.60;7.60;;;12.50;99.90;;;;;;5020574;28;20041;-84
2022/10/26 07:59:53;;;;;;;9.48;6.70;;;12.50;99.90;;;;;;5036611;28;20135;-83
2022/10/26 08:02:18;;;;;;;13.23;7.10;;;12.40;99.90;;;;;;5035886;28;20098;-84
2022/10/26 08:04:44;;;;;;;13.07;6.95;;;12.40;99.90;;;;;;5023985;28;20136;-84
2022/10/26 08:07:10;;;;;;;13.88;7.18;;;12.40;99.90;;;;;;5040261;28;20095;-83
2022/10/26 08:09:35;;;;;;;9.70;6.65;;;12.40;99.90;;;;;;5025891;28;20037;-84
2022/10/26 08:12:01;;;;;;;14.02;6.80;;;12.40;99.90;;;;;;5043344;28;20072;-84
2022/10/26 08:14:27;;;;;;;9.30;6.75;;;12.40;99.90;;;;;;5026494;28;20047;-83
2022/10/26 08:16:52;;;;;;;11.57;6.60;;;12.40;99.90;;;;;;5043549;28;20036;-83
2022/10/26 08:19:18;;;;;;;13.38;7.03;;;12.30;99.90;;;;;;5026957;28;20037;-83
2022/10/26 08:21:44;;;;;;;12.13;6.60;;;12.40;99.90;;;;;;5059729;28;20047;-83
2022/10/26 08:24:10;;;;;;;13.05;6.50;;;12.50;99.90;;;;;;5027004;28;20556;-83
2022/10/26 08:26:35;;;;;;;9.68;6.38;;;12.50;99.90;;;;;;5024671;28;20082;-83
2022/10/26 08:29:01;;;;;;;11.23;7.00;;;12.60;99.90;;;;;;5023626;28;20483;-84
2022/10/26 08:31:27;;;;;;;9.98;6.32;;;12.70;99.90;;;;;;5022829;28;20055;-83
2022/10/26 08:33:53;;;;;;;9.30;5.88;;;12.80;99.90;;;;;;5023256;28;20081;-83
2022/10/26 08:36:23;;;;;;;10.68;6.18;;;12.90;99.90;;;;;;5039140;28;20041;-83
2022/10/26 08:38:48;;;;;;;9.15;5.57;;;13.00;99.90;;;;;;5022726;28;20072;-83
2022/10/26 08:41:14;;;;;;;9.07;5.20;;;13.30;99.90;;;;;;5022297;28;20073;-85
2022/10/26 08:43:48;;;;;;;10.18;5.68;;;13.20;99.90;;;;;;5024858;28;20497;-84
2022/10/26 08:46:16;;;;;;;10.52;5.07;;;13.40;99.90;;;;;;5058588;28;20044;-84
2022/10/26 08:49:02;;;;;;;9.10;4.93;;;13.50;99.90;;;;;;5058718;28;20431;-85
2022/10/26 08:51:36;;;;;;;10.80;5.25;;;13.60;99.90;;;;;;5042986;28;20059;-84
2022/10/26 08:54:13;;;;;;;7.47;4.82;;;13.70;99.90;;;;;;5043096;28;20041;-84
2022/10/26 08:56:49;;;;;;;8.50;4.68;;;13.80;99.90;;;;;;5059012;28;20045;-84
2022/10/26 08:59:39;;;;;;;10.45;5.18;;;13.90;99.90;;;;;;5041817;28;20089;-84
2022/10/26 09:02:12;;;;;;;13.23;4.90;;;14.00;99.90;;;;;;5038662;28;20040;-84
2022/10/26 09:04:38;;;;;;;12.18;4.93;;;14.10;99.90;;;;;;5039150;28;20052;-84
2022/10/26 09:07:11;;;;;;;9.00;4.55;;;14.10;99.90;;;;;;5021888;28;20120;-84
2022/10/26 09:10:00;;;;;;;12.07;4.47;;;14.20;99.90;;;;;;5038759;28;20497;-84
2022/10/26 09:12:32;;;;;;;8.05;3.92;;;14.40;99.90;;;;;;5021932;28;20029;-84
2022/10/26 09:15:12;;;;;;;9.40;4.47;;;14.60;99.90;;;;;;5037523;28;20179;-84
2022/10/26 09:17:50;;;;;;;7.80;4.32;;;14.80;99.90;;;;;;5037740;28;20041;-84
2022/10/26 09:20:47;;;;;;;10.90;4.90;;;14.90;99.90;;;;;;5039328;28;20064;-85
2022/10/26 09:23:16;;;;;;;8.02;4.20;;;15.20;99.90;;;;;;5022395;28;20378;-84
2022/10/26 09:25:42;;;;;;;7.63;3.60;;;15.40;99.90;;;;;;5042240;28;20053;-85
2022/10/26 09:28:16;;;;;;;10.43;3.88;;;15.50;99.90;;;;;;5025322;28;20044;-84
2022/10/26 09:30:46;;;;;;;7.03;3.47;;;15.70;99.90;;;;;;5022112;28;20045;-84
2022/10/26 09:33:18;;;;;;;8.35;4.20;;;15.80;99.90;;;;;;5006063;28;20041;-84
2022/10/26 09:35:51;;;;;;;5.38;3.25;;;15.80;99.90;;;;;;5033825;28;20198;-84
2022/10/26 09:38:33;;;;;;;8.20;3.13;;;16.10;99.90;;;;;;5042003;28;20037;-84
2022/10/26 09:41:09;;;;;;;8.15;3.10;;;16.20;99.90;;;;;;5026464;28;20051;-84
2022/10/26 09:43:56;;;;;;;5.63;2.90;;;16.30;99.90;;;;;;5041391;28;20128;-84
2022/10/26 09:46:44;;;;;;;7.80;2.70;;;16.30;99.90;;;;;;5058478;28;20148;-84
2022/10/26 09:49:12;;;;;;;6.20;2.72;;;16.40;99.90;;;;;;5040942;28;20039;-85
2022/10/26 09:51:41;;;;;;;8.15;2.72;;;16.50;99.90;;;;;;5054879;28;20044;-84
2022/10/26 09:54:19;;;;;;;9.98;2.50;;;16.50;99.90;;;;;;5038049;28;20049;-84
2022/10/26 09:56:50;;;;;;;6.55;2.60;;;16.50;99.90;;;;;;5054210;28;20041;-83
2022/10/26 09:59:20;;;;;;;6.93;3.08;;;16.60;99.90;;;;;;5036599;28;20044;-82
2022/10/26 10:01:46;;;;;;;4.38;2.42;;;16.70;99.90;;;;;;5020384;28;20041;-83
2022/10/26 10:04:15;;;;;;;6.38;2.50;;;16.90;99.90;;;;;;5004511;28;20071;-84
2022/10/26 10:06:45;;;;;;;9.75;2.90;;;17.00;99.90;;;;;;5053657;28;20045;-83
2022/10/26 10:09:17;;;;;;;6.07;2.45;;;17.10;99.90;;;;;;5036562;28;20041;-83
2022/10/26 10:11:56;;;;;;;8.10;2.55;;;17.00;99.90;;;;;;5036799;28;20092;-83
2022/10/26 10:14:28;;;;;;;7.43;3.17;;;17.10;99.90;;;;;;5036610;28;20095;-83
2022/10/26 10:17:07;;;;;;;5.22;2.53;;;17.00;99.90;;;;;;5020704;28;20052;-82
2022/10/26 10:19:35;;;;;;;4.93;2.58;;;17.00;99.90;;;;;;5020336;28;20044;-83
2022/10/26 10:22:17;;;;;;;5.35;2.53;;;17.10;99.90;;;;;;5053208;28;20073;-83
2022/10/26 10:24:58;;;;;;;8.73;2.47;;;17.30;99.90;;;;;;5071374;28;20076;-84
2022/10/26 10:27:24;;;;;;;5.82;2.83;;;17.30;99.90;;;;;;5029642;28;20047;-83
2022/10/26 10:29:57;;;;;;;5.47;2.65;;;17.30;99.90;;;;;;5036828;28;20063;-83
2022/10/26 10:32:30;;;;;;;7.20;2.58;;;17.20;99.90;;;;;;5027839;28;20037;-83
2022/10/26 10:34:59;;;;;;;8.52;2.75;;;17.10;99.90;;;;;;5039809;28;20028;-84
2022/10/26 10:37:42;;;;;;;5.63;2.50;;;17.10;99.90;;;;;;5022569;28;20501;-84
2022/10/26 10:40:19;;;;;;;7.13;2.90;;;17.00;99.90;;;;;;5039707;28;20039;-83
2022/10/26 10:42:47;;;;;;;7.82;2.78;;;17.00;99.90;;;;;;5026902;28;20102;-82
2022/10/26 10:45:21;;;;;;;7.00;3.00;;;17.00;99.90;;;;;;5049559;28;20080;-82
2022/10/26 10:48:02;;;;;;;6.65;2.40;;;17.00;99.90;;;;;;5023200;28;20040;-83
2022/10/26 10:50:28;;;;;;;4.95;2.80;;;17.00;99.90;;;;;;5051836;28;20037;-84
2022/10/26 10:53:18;;;;;;;5.45;2.85;;;17.00;99.90;;;;;;4988487;28;20053;-84
2022/10/26 10:55:57;;;;;;;5.75;2.53;;;17.00;99.90;;;;;;5020854;28;20037;-82
2022/10/26 10:58:57;;;;;;;7.25;2.70;;;17.00;99.90;;;;;;5031764;28;20111;-83
2022/10/26 11:01:30;;;;;;;7.55;3.00;;;17.10;99.90;;;;;;5052513;28;20460;-83
2022/10/26 11:04:18;;;;;;;7.93;3.13;;;17.20;99.90;;;;;;5038581;28;20049;-84
2022/10/26 11:06:46;;;;;;;5.80;2.67;;;17.20;99.90;;;;;;5018932;28;20048;-83
2022/10/26 11:09:15;;;;;;;5.20;2.72;;;17.20;99.90;;;;;;5030382;28;20052;-82
2022/10/26 11:11:44;;;;;;;14.77;4.35;;;17.20;99.90;;;;;;5052102;28;20037;-82
2022/10/26 11:14:21;;;;;;;7.25;3.05;;;17.20;99.90;;;;;;5034433;28;20041;-83
2022/10/26 11:17:05;;;;;;;8.48;2.83;;;17.30;99.90;;;;;;5035072;28;20121;-83
2022/10/26 11:19:52;;;;;;;7.25;3.00;;;17.40;99.90;;;;;;5039737;28;20087;-83
2022/10/26 11:22:33;;;;;;;6.72;3.42;;;17.50;99.90;;;;;;5055187;28;20646;-83
2022/10/26 11:25:05;;;;;;;10.07;3.30;;;17.60;99.90;;;;;;5054300;28;20081;-83
2022/10/26 11:27:51;;;;;;;11.93;3.20;;;17.70;99.90;;;;;;5038821;28;20037;-83
2022/10/26 11:30:20;;;;;;;6.63;2.95;;;17.70;99.90;;;;;;5054698;28;20504;-83
2022/10/26 11:33:01;;;;;;;6.68;3.17;;;17.70;99.90;;;;;;5038159;28;20106;-83
2022/10/26 11:35:59;;;;;;;7.95;3.10;;;17.70;99.90;;;;;;5038951;28;20072;-83
2022/10/26 11:38:50;;;;;;;10.20;4.00;;;17.70;99.90;;;;;;5036165;28;20212;-83
2022/10/26 11:41:30;;;;;;;7.70;3.25;;;17.80;99.90;;;;;;5042195;28;20055;-82
2022/10/26 11:44:18;;;;;;;5.50;2.83;;;17.90;99.90;;;;;;5038481;28;20069;-83
2022/10/26 11:46:49;;;;;;;5.97;2.88;;;18.30;99.90;;;;;;5022456;28;20033;-82
2022/10/26 11:49:31;;;;;;;10.27;3.50;;;18.60;99.90;;;;;;5039771;28;20060;-82
2022/10/26 11:52:16;;;;;;;7.78;3.03;;;18.70;99.90;;;;;;5038394;28;20436;-83
2022/10/26 11:54:46;;;;;;;7.53;3.00;;;18.70;99.90;;;;;;5023884;28;20060;-83
2022/10/26 11:57:14;;;;;;;7.90;2.78;;;18.70;99.90;;;;;;5023487;28;20033;-82
2022/10/26 11:59:50;;;;;;;7.10;3.00;;;18.60;99.90;;;;;;5022712;28;20041;-82
2022/10/26 12:02:22;;;;;;;6.03;3.05;;;18.60;99.90;;;;;;5044803;28;20056;-82
2022/10/26 12:04:58;;;;;;;8.23;3.53;;;18.50;99.90;;;;;;5050069;28;20044;-82
2022/10/26 12:07:34;;;;;;;6.53;3.00;;;18.40;99.90;;;;;;5040357;28;20045;-83
2022/10/26 12:10:02;;;;;;;6.30;2.92;;;18.40;99.90;;;;;;5055384;28;20048;-82
2022/10/26 12:12:47;;;;;;;6.57;3.00;;;18.30;99.90;;;;;;5026144;28;20078;-82
2022/10/26 12:15:25;;;;;;;6.47;2.90;;;18.30;99.90;;;;;;5039679;28;20405;-83
2022/10/26 12:18:08;;;;;;;8.02;3.70;;;18.40;99.90;;;;;;5038794;28;20124;-83
2022/10/26 12:20:54;;;;;;;10.55;3.75;;;18.40;99.90;;;;;;5022781;28;20055;-83
2022/10/26 12:23:22;;;;;;;6.63;3.22;;;18.40;99.90;;;;;;5039435;28;20052;-82
2022/10/26 12:25:47;;;;;;;9.65;3.85;;;18.30;99.90;;;;;;5009854;28;20040;-82
2022/10/26 12:28:36;;;;;;;8.18;3.42;;;18.40;99.90;;;;;;5041941;28;20123;-83
2022/10/26 12:31:36;;;;;;;9.07;3.65;;;18.40;99.90;;;;;;5057816;28;20044;-83
2022/10/26 12:34:31;;;;;;;8.00;3.72;;;18.40;99.90;;;;;;5041354;28;20044;-83
2022/10/26 12:36:56;;;;;;;10.27;3.85;;;18.40;99.90;;;;;;4999397;28;20048;-83
2022/10/26 12:39:34;;;;;;;8.57;3.78;;;18.40;99.90;;;;;;5041328;28;20444;-83
2022/10/26 12:42:26;;;;;;;10.15;4.03;;;18.50;99.90;;;;;;5040194;28;20068;-83
2022/10/26 12:44:52;;;;;;;14.00;5.07;;;18.30;99.90;;;;;;5041035;28;20042;-83
2022/10/26 12:47:47;;;;;;;5.53;3.85;;;18.30;99.90;;;;;;5058219;28;20040;-83
2022/10/26 12:50:12;;;;;;;7.25;4.43;;;18.20;99.90;;;;;;5040598;28;20497;-83
2022/10/26 12:52:58;;;;;;;8.55;4.10;;;18.20;99.90;;;;;;5056877;28;20052;-83
2022/10/26 12:55:49;;;;;;;10.57;4.40;;;18.10;99.90;;;;;;5041714;28;20044;-83
2022/10/26 12:58:29;;;;;;;9.38;4.35;;;18.00;99.90;;;;;;5057316;28;20440;-83
2022/10/26 13:00:57;;;;;;;8.77;4.93;;;18.00;99.90;;;;;;5053418;28;20037;-83
2022/10/26 13:03:45;;;;;;;8.68;4.45;;;18.00;99.90;;;;;;5054283;28;20119;-83